sensor_id;sensor_type;location;lat;lon;timestamp;temperature;humidity
14749;DHT22;7466;53.574;9.976;2023-09-19T00:02:03;16.90;99.90
14749;DHT22;7466;53.574;9.976;2023-09-19T00:04:31;16.80;99.90
14749;DHT22;7466;53.574;9.976;2023-09-19T00:06:58;16.80;99.90
14749;DHT22;7466;53.574;9.976;2023-09-19T00:09:25;16.80;99.90
14749;DHT22;7466;53.574;9.976;2023-09-19T00:11:53;16.80;99.90
14749;DHT22;7466;53.574;9.976;2023-09-19T00:14:20;16.80;99.90
14749;DHT22;7466;53.574;9.976;2023-09-19T00:16:50;16.80;99.90
14749;DHT22;7466;53.574;9.976;2023-09-19T00:19:18;16.80;99.90
14749;DHT22;7466;53.574;9.976;2023-09-19T00:21:44;16.80;99.90
14749;DHT22;7466;53.574;9.976;2023-09-19T00:24:12;16.80;99.90
14749;DHT22;7466;53.574;9.976;2023-09-19T00:26:39;16.80;99.90
14749;DHT22;7466;53.574;9.976;2023-09-19T00:29:06;16.70;99.90
14749;DHT22;7466;53.574;9.976;2023-09-19T00:31:34;16.70;99.90
14749;DHT22;7466;53.574;9.976;2023-09-19T00:34:03;16.70;99.90
14749;DHT22;7466;53.574;9.976;2023-09-19T00:36:32;16.70;99.90
14749;DHT22;7466;53.574;9.976;2023-09-19T00:39:00;16.70;99.90
14749;DHT22;7466;53.574;9.976;2023-09-19T00:41:28;16.70;99.90
14749;DHT22;7466;53.574;9.976;2023-09-19T00:43:55;16.70;99.90
14749;DHT22;7466;53.574;9.976;2023-09-19T00:46:22;16.70;99.90
14749;DHT22;7466;53.574;9.976;2023-09-19T00:48:49;16.70;99.90
14749;DHT22;7466;53.574;9.976;2023-09-19T00:51:16;16.70;99.90
14749;DHT22;7466;53.574;9.976;2023-09-19T00:53:46;16.70;99.90
14749;DHT22;7466;53.574;9.976;2023-09-19T00:56:13;16.70;99.90
14749;DHT22;7466;53.574;9.976;2023-09-19T00:58:43;16.70;99.90
14749;DHT22;7466;53.574;9.976;2023-09-19T01:01:12;16.70;99.90
14749;DHT22;7466;53.574;9.976;2023-09-19T01:03:40;16.70;99.90
14749;DHT22;7466;53.574;9.976;2023-09-19T01:06:07;16.70;99.90
14749;DHT22;7466;53.574;9.976;2023-09-19T01:08:34;16.70;99.90
14749;DHT22;7466;53.574;9.976;2023-09-19T01:11:09;16.70;99.90
14749;DHT22;7466;53.574;9.976;2023-09-19T01:13:47;16.70;99.90
14749;DHT22;7466;53.574;9.976;2023-09-19T01:16:21;16.70;99.90
14749;DHT22;7466;53.574;9.976;2023-09-19T01:18:55;16.70;99.90
14749;DHT22;7466;53.574;9.976;2023-09-19T01:21:28;16.70;99.90
14749;DHT22;7466;53.574;9.976;2023-09-19T01:24:16;16.60;99.90
14749;DHT22;7466;53.574;9.976;2023-09-19T01:27:06;16.60;99.90
14749;DHT22;7466;53.574;9.976;2023-09-19T01:29:39;16.60;99.90
14749;DHT22;7466;53.574;9.976;2023-09-19T01:32:13;16.70;99.90
14749;DHT22;7466;53.574;9.976;2023-09-19T01:34:46;16.70;99.90
14749;DHT22;7466;53.574;9.976;2023-09-19T01:37:16;16.70;99.90
14749;DHT22;7466;53.574;9.976;2023-09-19T01:39:46;16.80;99.90
14749;DHT22;7466;53.574;9.976;2023-09-19T01:42:24;16.80;99.90
14749;DHT22;7466;53.574;9.976;2023-09-19T01:44:59;16.80;99.90
14749;DHT22;7466;53.574;9.976;2023-09-19T01:47:33;16.80;99.90
14749;DHT22;7466;53.574;9.976;2023-09-19T01:50:10;16.80;99.90
14749;DHT22;7466;53.574;9.976;2023-09-19T01:52:43;16.70;99.90
14749;DHT22;7466;53.574;9.976;2023-09-19T01:55:14;16.70;99.90
14749;DHT22;7466;53.574;9.976;2023-09-19T01:57:49;16.60;99.90
14749;DHT22;7466;53.574;9.976;2023-09-19T02:00:20;16.60;99.90
14749;DHT22;7466;53.574;9.976;2023-09-19T02:02:50;16.60;99.90
14749;DHT22;7466;53.574;9.976;2023-09-19T02:05:25;16.50;99.90
14749;DHT22;7466;53.574;9.976;2023-09-19T02:07:52;16.50;99.90
14749;DHT22;7466;53.574;9.976;2023-09-19T02:10:21;16.40;99.90
14749;DHT22;7466;53.574;9.976;2023-09-19T02:12:47;16.40;99.90
14749;DHT22;7466;53.574;9.976;2023-09-19T02:15:15;16.30;99.90
14749;DHT22;7466;53.574;9.976;2023-09-19T02:17:42;16.30;99.90
14749;DHT22;7466;53.574;9.976;2023-09-19T02:20:11;16.20;99.90
14749;DHT22;7466;53.574;9.976;2023-09-19T02:22:40;16.20;99.90
14749;DHT22;7466;53.574;9.976;2023-09-19T02:25:07;16.20;99.90
14749;DHT22;7466;53.574;9.976;2023-09-19T02:27:34;16.20;99.90
14749;DHT22;7466;53.574;9.976;2023-09-19T02:30:01;16.20;99.90
14749;DHT22;7466;53.574;9.976;2023-09-19T02:32:29;16.10;99.90
14749;DHT22;7466;53.574;9.976;2023-09-19T02:34:56;16.10;99.90
14749;DHT22;7466;53.574;9.976;2023-09-19T02:37:25;16.10;99.90
14749;DHT22;7466;53.574;9.976;2023-09-19T02:39:52;16.00;99.90
14749;DHT22;7466;53.574;9.976;2023-09-19T02:42:19;16.10;99.90
14749;DHT22;7466;53.574;9.976;2023-09-19T02:44:46;16.00;99.90
14749;DHT22;7466;53.574;9.976;2023-09-19T02:47:13;16.00;99.90
14749;DHT22;7466;53.574;9.976;2023-09-19T02:49:42;16.00;99.90
14749;DHT22;7466;53.574;9.976;2023-09-19T02:52:09;16.00;99.90
14749;DHT22;7466;53.574;9.976;2023-09-19T02:54:38;16.00;99.90
14749;DHT22;7466;53.574;9.976;2023-09-19T02:57:07;16.00;99.90
14749;DHT22;7466;53.574;9.976;2023-09-19T02:59:35;16.00;99.90
14749;DHT22;7466;53.574;9.976;2023-09-19T03:02:03;16.00;99.90
14749;DHT22;7466;53.574;9.976;2023-09-19T03:04:30;16.00;99.90
14749;DHT22;7466;53.574;9.976;2023-09-19T03:06:58;16.10;99.90
14749;DHT22;7466;53.574;9.976;2023-09-19T03:09:26;16.10;99.90
14749;DHT22;7466;53.574;9.976;2023-09-19T03:11:54;16.10;99.90
14749;DHT22;7466;53.574;9.976;2023-09-19T03:14:22;16.10;99.90
14749;DHT22;7466;53.574;9.976;2023-09-19T03:16:48;16.10;99.90
14749;DHT22;7466;53.574;9.976;2023-09-19T03:19:16;16.10;99.90
14749;DHT22;7466;53.574;9.976;2023-09-19T03:21:42;16.10;99.90
14749;DHT22;7466;53.574;9.976;2023-09-19T03:24:09;16.10;99.90
14749;DHT22;7466;53.574;9.976;2023-09-19T03:26:36;16.10;99.90
14749;DHT22;7466;53.574;9.976;2023-09-19T03:29:05;16.10;99.90
14749;DHT22;7466;53.574;9.976;2023-09-19T03:31:33;16.00;99.90
14749;DHT22;7466;53.574;9.976;2023-09-19T03:34:02;16.10;99.90
14749;DHT22;7466;53.574;9.976;2023-09-19T03:36:29;16.10;99.90
14749;DHT22;7466;53.574;9.976;2023-09-19T03:38:56;16.00;99.90
14749;DHT22;7466;53.574;9.976;2023-09-19T03:41:23;16.00;99.90
14749;DHT22;7466;53.574;9.976;2023-09-19T03:43:50;16.00;99.90
14749;DHT22;7466;53.574;9.976;2023-09-19T03:46:18;15.90;99.90
14749;DHT22;7466;53.574;9.976;2023-09-19T03:48:44;15.90;99.90
14749;DHT22;7466;53.574;9.976;2023-09-19T03:51:11;15.80;99.90
14749;DHT22;7466;53.574;9.976;2023-09-19T03:53:38;15.80;99.90
14749;DHT22;7466;53.574;9.976;2023-09-19T03:56:04;15.80;99.90
14749;DHT22;7466;53.574;9.976;2023-09-19T03:58:31;15.70;99.90
14749;DHT22;7466;53.574;9.976;2023-09-19T04:01:00;15.60;99.90
14749;DHT22;7466;53.574;9.976;2023-09-19T04:03:28;15.60;99.90
14749;DHT22;7466;53.574;9.976;2023-09-19T04:06:00;15.60;99.90
14749;DHT22;7466;53.574;9.976;2023-09-19T04:08:27;15.50;99.90
14749;DHT22;7466;53.574;9.976;2023-09-19T04:10:55;15.40;99.90
14749;DHT22;7466;53.574;9.976;2023-09-19T04:13:22;15.40;99.90
14749;DHT22;7466;53.574;9.976;2023-09-19T04:18:25;15.30;99.90
14749;DHT22;7466;53.574;9.976;2023-09-19T04:20:56;15.20;99.90
14749;DHT22;7466;53.574;9.976;2023-09-19T04:23:31;15.20;99.90
14749;DHT22;7466;53.574;9.976;2023-09-19T04:26:00;15.20;99.90
14749;DHT22;7466;53.574;9.976;2023-09-19T04:28:29;15.10;99.90
14749;DHT22;7466;53.574;9.976;2023-09-19T04:30:56;15.10;99.90
14749;DHT22;7466;53.574;9.976;2023-09-19T04:33:25;15.10;99.90
14749;DHT22;7466;53.574;9.976;2023-09-19T04:35:55;15.00;99.90
14749;DHT22;7466;53.574;9.976;2023-09-19T04:38:25;15.00;99.90
14749;DHT22;7466;53.574;9.976;2023-09-19T04:40:57;14.90;99.90
14749;DHT22;7466;53.574;9.976;2023-09-19T04:43:24;14.80;99.90
14749;DHT22;7466;53.574;9.976;2023-09-19T04:45:51;14.80;99.90
14749;DHT22;7466;53.574;9.976;2023-09-19T04:48:21;14.80;99.90
14749;DHT22;7466;53.574;9.976;2023-09-19T04:50:49;14.80;99.90
14749;DHT22;7466;53.574;9.976;2023-09-19T04:53:17;14.70;99.90
14749;DHT22;7466;53.574;9.976;2023-09-19T04:55:50;14.70;99.90
14749;DHT22;7466;53.574;9.976;2023-09-19T04:58:18;14.70;99.90
14749;DHT22;7466;53.574;9.976;2023-09-19T05:00:44;14.70;99.90
14749;DHT22;7466;53.574;9.976;2023-09-19T05:03:11;14.60;99.90
14749;DHT22;7466;53.574;9.976;2023-09-19T05:05:38;14.60;99.90
14749;DHT22;7466;53.574;9.976;2023-09-19T05:08:10;14.60;99.90
14749;DHT22;7466;53.574;9.976;2023-09-19T05:10:38;14.60;99.90
14749;DHT22;7466;53.574;9.976;2023-09-19T05:13:05;14.50;99.90
14749;DHT22;7466;53.574;9.976;2023-09-19T05:15:36;14.50;99.90
14749;DHT22;7466;53.574;9.976;2023-09-19T05:18:03;14.50;99.90
14749;DHT22;7466;53.574;9.976;2023-09-19T05:20:31;14.50;99.90
14749;DHT22;7466;53.574;9.976;2023-09-19T05:23:00;14.40;99.90
14749;DHT22;7466;53.574;9.976;2023-09-19T05:25:28;14.40;99.90
14749;DHT22;7466;53.574;9.976;2023-09-19T05:27:58;14.40;99.90
14749;DHT22;7466;53.574;9.976;2023-09-19T05:30:26;14.40;99.90
14749;DHT22;7466;53.574;9.976;2023-09-19T05:32:55;14.40;99.90
14749;DHT22;7466;53.574;9.976;2023-09-19T05:35:22;14.40;99.90
14749;DHT22;7466;53.574;9.976;2023-09-19T05:37:51;14.40;99.90
14749;DHT22;7466;53.574;9.976;2023-09-19T05:40:20;14.30;99.90
14749;DHT22;7466;53.574;9.976;2023-09-19T05:42:47;14.30;99.90
14749;DHT22;7466;53.574;9.976;2023-09-19T05:45:17;14.40;99.90
14749;DHT22;7466;53.574;9.976;2023-09-19T05:47:48;14.40;99.90
14749;DHT22;7466;53.574;9.976;2023-09-19T05:50:15;14.50;99.90
14749;DHT22;7466;53.574;9.976;2023-09-19T05:52:42;14.50;99.90
14749;DHT22;7466;53.574;9.976;2023-09-19T05:55:13;14.50;99.90
14749;DHT22;7466;53.574;9.976;2023-09-19T05:57:40;14.60;99.90
14749;DHT22;7466;53.574;9.976;2023-09-19T06:00:08;14.60;99.90
14749;DHT22;7466;53.574;9.976;2023-09-19T06:02:38;14.70;99.90
14749;DHT22;7466;53.574;9.976;2023-09-19T06:05:08;14.70;99.90
14749;DHT22;7466;53.574;9.976;2023-09-19T06:07:36;14.80;99.90
14749;DHT22;7466;53.574;9.976;2023-09-19T06:10:03;14.80;99.90
14749;DHT22;7466;53.574;9.976;2023-09-19T06:12:32;14.90;99.90
14749;DHT22;7466;53.574;9.976;2023-09-19T06:15:03;15.00;99.90
14749;DHT22;7466;53.574;9.976;2023-09-19T06:17:31;15.00;99.90
14749;DHT22;7466;53.574;9.976;2023-09-19T06:20:07;15.10;99.90
14749;DHT22;7466;53.574;9.976;2023-09-19T06:22:38;15.20;99.90
14749;DHT22;7466;53.574;9.976;2023-09-19T06:25:07;15.20;99.90
14749;DHT22;7466;53.574;9.976;2023-09-19T06:27:39;15.20;99.90
14749;DHT22;7466;53.574;9.976;2023-09-19T06:30:08;15.20;99.90
14749;DHT22;7466;53.574;9.976;2023-09-19T06:32:36;15.30;99.90
14749;DHT22;7466;53.574;9.976;2023-09-19T06:35:05;15.30;99.90
14749;DHT22;7466;53.574;9.976;2023-09-19T06:37:34;15.30;99.90
14749;DHT22;7466;53.574;9.976;2023-09-19T06:40:01;15.30;99.90
14749;DHT22;7466;53.574;9.976;2023-09-19T06:42:31;15.30;99.90
14749;DHT22;7466;53.574;9.976;2023-09-19T06:44:58;15.30;99.90
14749;DHT22;7466;53.574;9.976;2023-09-19T06:47:26;15.40;99.90
14749;DHT22;7466;53.574;9.976;2023-09-19T06:49:53;15.40;99.90
14749;DHT22;7466;53.574;9.976;2023-09-19T06:52:21;15.40;99.90
14749;DHT22;7466;53.574;9.976;2023-09-19T06:54:48;15.50;99.90
14749;DHT22;7466;53.574;9.976;2023-09-19T06:57:15;15.50;99.90
14749;DHT22;7466;53.574;9.976;2023-09-19T06:59:42;15.50;99.90
14749;DHT22;7466;53.574;9.976;2023-09-19T07:02:10;15.50;99.90
14749;DHT22;7466;53.574;9.976;2023-09-19T07:04:37;15.60;99.90
14749;DHT22;7466;53.574;9.976;2023-09-19T07:07:03;15.60;99.90
14749;DHT22;7466;53.574;9.976;2023-09-19T07:09:31;15.70;99.90
14749;DHT22;7466;53.574;9.976;2023-09-19T07:12:04;15.70;99.90
14749;DHT22;7466;53.574;9.976;2023-09-19T07:14:31;15.60;99.90
14749;DHT22;7466;53.574;9.976;2023-09-19T07:16:58;15.70;99.90
14749;DHT22;7466;53.574;9.976;2023-09-19T07:19:25;15.80;99.90
14749;DHT22;7466;53.574;9.976;2023-09-19T07:21:53;15.70;99.90
14749;DHT22;7466;53.574;9.976;2023-09-19T07:24:22;15.70;99.90
14749;DHT22;7466;53.574;9.976;2023-09-19T07:26:53;15.80;99.90
14749;DHT22;7466;53.574;9.976;2023-09-19T07:29:23;15.80;99.90
14749;DHT22;7466;53.574;9.976;2023-09-19T07:31:51;15.80;99.90
14749;DHT22;7466;53.574;9.976;2023-09-19T07:34:18;15.80;99.90
14749;DHT22;7466;53.574;9.976;2023-09-19T07:36:46;15.80;99.90
14749;DHT22;7466;53.574;9.976;2023-09-19T07:39:17;15.80;99.90
14749;DHT22;7466;53.574;9.976;2023-09-19T07:41:44;15.90;99.90
14749;DHT22;7466;53.574;9.976;2023-09-19T07:44:13;15.80;99.90
14749;DHT22;7466;53.574;9.976;2023-09-19T07:46:40;15.80;99.90
14749;DHT22;7466;53.574;9.976;2023-09-19T07:49:06;15.80;99.90
14749;DHT22;7466;53.574;9.976;2023-09-19T07:51:33;15.70;99.90
14749;DHT22;7466;53.574;9.976;2023-09-19T07:54:00;15.60;99.90
14749;DHT22;7466;53.574;9.976;2023-09-19T07:56:27;15.60;99.90
14749;DHT22;7466;53.574;9.976;2023-09-19T07:58:54;15.30;99.90
14749;DHT22;7466;53.574;9.976;2023-09-19T08:01:24;15.10;99.90
14749;DHT22;7466;53.574;9.976;2023-09-19T08:03:52;14.90;99.90
14749;DHT22;7466;53.574;9.976;2023-09-19T08:06:19;14.70;99.90
14749;DHT22;7466;53.574;9.976;2023-09-19T08:08:50;14.50;99.90
14749;DHT22;7466;53.574;9.976;2023-09-19T08:11:19;14.60;99.90
14749;DHT22;7466;53.574;9.976;2023-09-19T08:13:47;14.50;99.90
14749;DHT22;7466;53.574;9.976;2023-09-19T08:16:15;14.60;99.90
14749;DHT22;7466;53.574;9.976;2023-09-19T08:18:47;14.60;99.90
14749;DHT22;7466;53.574;9.976;2023-09-19T08:21:14;14.70;99.90
14749;DHT22;7466;53.574;9.976;2023-09-19T08:23:42;14.80;99.90
14749;DHT22;7466;53.574;9.976;2023-09-19T08:26:10;14.80;99.90
14749;DHT22;7466;53.574;9.976;2023-09-19T08:28:37;15.00;99.90
14749;DHT22;7466;53.574;9.976;2023-09-19T08:31:06;15.10;99.90
14749;DHT22;7466;53.574;9.976;2023-09-19T08:33:34;15.20;99.90
14749;DHT22;7466;53.574;9.976;2023-09-19T08:36:03;15.30;99.90
14749;DHT22;7466;53.574;9.976;2023-09-19T08:38:31;15.30;99.90
14749;DHT22;7466;53.574;9.976;2023-09-19T08:41:07;15.30;99.90
14749;DHT22;7466;53.574;9.976;2023-09-19T08:43:34;15.40;99.90
14749;DHT22;7466;53.574;9.976;2023-09-19T08:46:09;15.50;99.90
14749;DHT22;7466;53.574;9.976;2023-09-19T08:48:42;15.50;99.90
14749;DHT22;7466;53.574;9.976;2023-09-19T08:51:18;15.60;99.90
14749;DHT22;7466;53.574;9.976;2023-09-19T08:53:51;15.60;99.90
14749;DHT22;7466;53.574;9.976;2023-09-19T08:56:19;15.70;99.90
14749;DHT22;7466;53.574;9.976;2023-09-19T08:58:50;15.80;99.90
14749;DHT22;7466;53.574;9.976;2023-09-19T09:01:23;15.90;99.90
14749;DHT22;7466;53.574;9.976;2023-09-19T09:03:51;15.90;99.90
14749;DHT22;7466;53.574;9.976;2023-09-19T09:06:21;15.90;99.90
14749;DHT22;7466;53.574;9.976;2023-09-19T09:08:50;15.90;99.90
14749;DHT22;7466;53.574;9.976;2023-09-19T09:11:18;16.00;99.90
14749;DHT22;7466;53.574;9.976;2023-09-19T09:13:45;16.00;99.90
14749;DHT22;7466;53.574;9.976;2023-09-19T09:16:12;16.00;99.90
14749;DHT22;7466;53.574;9.976;2023-09-19T09:18:39;16.10;99.90
14749;DHT22;7466;53.574;9.976;2023-09-19T09:21:06;16.20;99.90
14749;DHT22;7466;53.574;9.976;2023-09-19T09:23:35;16.20;99.90
14749;DHT22;7466;53.574;9.976;2023-09-19T09:26:04;16.20;99.90
14749;DHT22;7466;53.574;9.976;2023-09-19T09:28:33;16.40;99.90
14749;DHT22;7466;53.574;9.976;2023-09-19T09:31:02;16.30;99.90
14749;DHT22;7466;53.574;9.976;2023-09-19T09:33:33;16.50;99.90
14749;DHT22;7466;53.574;9.976;2023-09-19T09:36:01;16.60;99.90
14749;DHT22;7466;53.574;9.976;2023-09-19T09:38:30;16.70;99.90
14749;DHT22;7466;53.574;9.976;2023-09-19T09:41:11;16.80;99.90
14749;DHT22;7466;53.574;9.976;2023-09-19T09:43:41;17.00;99.90
14749;DHT22;7466;53.574;9.976;2023-09-19T09:46:13;17.10;99.90
14749;DHT22;7466;53.574;9.976;2023-09-19T09:49:01;17.20;99.90
14749;DHT22;7466;53.574;9.976;2023-09-19T09:51:59;17.20;99.90
14749;DHT22;7466;53.574;9.976;2023-09-19T09:54:32;17.40;99.90
14749;DHT22;7466;53.574;9.976;2023-09-19T09:57:05;17.50;99.90
14749;DHT22;7466;53.574;9.976;2023-09-19T09:59:47;17.80;99.90
14749;DHT22;7466;53.574;9.976;2023-09-19T10:02:15;17.90;99.90
14749;DHT22;7466;53.574;9.976;2023-09-19T10:04:48;18.00;99.90
14749;DHT22;7466;53.574;9.976;2023-09-19T10:07:29;18.10;99.90
14749;DHT22;7466;53.574;9.976;2023-09-19T10:10:02;18.40;99.90
14749;DHT22;7466;53.574;9.976;2023-09-19T10:12:43;18.20;99.90
14749;DHT22;7466;53.574;9.976;2023-09-19T10:15:13;18.30;99.90
14749;DHT22;7466;53.574;9.976;2023-09-19T10:17:42;18.40;99.90
14749;DHT22;7466;53.574;9.976;2023-09-19T10:20:12;18.30;99.90
14749;DHT22;7466;53.574;9.976;2023-09-19T10:23:03;18.40;99.90
14749;DHT22;7466;53.574;9.976;2023-09-19T10:25:37;18.40;99.90
14749;DHT22;7466;53.574;9.976;2023-09-19T10:28:06;18.50;99.90
14749;DHT22;7466;53.574;9.976;2023-09-19T10:30:37;18.50;99.90
14749;DHT22;7466;53.574;9.976;2023-09-19T10:33:09;18.20;99.90
14749;DHT22;7466;53.574;9.976;2023-09-19T10:35:39;18.20;99.90
14749;DHT22;7466;53.574;9.976;2023-09-19T10:38:07;18.50;99.90
14749;DHT22;7466;53.574;9.976;2023-09-19T10:40:37;18.60;99.90
14749;DHT22;7466;53.574;9.976;2023-09-19T10:43:13;18.50;99.90
14749;DHT22;7466;53.574;9.976;2023-09-19T10:45:44;18.40;99.90
14749;DHT22;7466;53.574;9.976;2023-09-19T10:48:15;18.40;99.90
14749;DHT22;7466;53.574;9.976;2023-09-19T10:50:52;18.60;99.90
14749;DHT22;7466;53.574;9.976;2023-09-19T10:53:20;18.60;99.90
14749;DHT22;7466;53.574;9.976;2023-09-19T10:55:52;18.40;99.90
14749;DHT22;7466;53.574;9.976;2023-09-19T10:58:29;18.20;99.90
14749;DHT22;7466;53.574;9.976;2023-09-19T11:00:57;18.30;99.90
14749;DHT22;7466;53.574;9.976;2023-09-19T11:03:31;18.30;99.90
14749;DHT22;7466;53.574;9.976;2023-09-19T11:06:05;18.80;99.90
14749;DHT22;7466;53.574;9.976;2023-09-19T11:08:54;18.90;99.90
14749;DHT22;7466;53.574;9.976;2023-09-19T11:11:45;18.80;99.90
14749;DHT22;7466;53.574;9.976;2023-09-19T11:14:41;18.60;99.90
14749;DHT22;7466;53.574;9.976;2023-09-19T11:17:30;18.50;99.90
14749;DHT22;7466;53.574;9.976;2023-09-19T11:20:19;18.40;99.90
14749;DHT22;7466;53.574;9.976;2023-09-19T11:23:22;18.50;99.90
14749;DHT22;7466;53.574;9.976;2023-09-19T11:25:54;18.50;99.90
14749;DHT22;7466;53.574;9.976;2023-09-19T11:28:31;18.50;99.90
14749;DHT22;7466;53.574;9.976;2023-09-19T11:34:54;19.10;99.90
14749;DHT22;7466;53.574;9.976;2023-09-19T11:38:00;18.90;99.90
14749;DHT22;7466;53.574;9.976;2023-09-19T11:40:45;18.90;99.90
14749;DHT22;7466;53.574;9.976;2023-09-19T11:43:32;19.30;99.90
14749;DHT22;7466;53.574;9.976;2023-09-19T11:46:10;19.50;99.90
14749;DHT22;7466;53.574;9.976;2023-09-19T11:48:39;19.50;99.90
14749;DHT22;7466;53.574;9.976;2023-09-19T11:51:17;19.40;99.90
14749;DHT22;7466;53.574;9.976;2023-09-19T11:53:52;19.20;99.90
14749;DHT22;7466;53.574;9.976;2023-09-19T11:56:23;19.10;99.90
14749;DHT22;7466;53.574;9.976;2023-09-19T11:58:52;19.10;99.90
14749;DHT22;7466;53.574;9.976;2023-09-19T12:01:25;19.20;99.90
14749;DHT22;7466;53.574;9.976;2023-09-19T12:04:04;19.30;99.90
14749;DHT22;7466;53.574;9.976;2023-09-19T12:06:38;19.10;99.90
14749;DHT22;7466;53.574;9.976;2023-09-19T12:09:12;19.20;99.90
14749;DHT22;7466;53.574;9.976;2023-09-19T12:11:43;19.10;99.90
14749;DHT22;7466;53.574;9.976;2023-09-19T12:14:10;19.00;99.90
14749;DHT22;7466;53.574;9.976;2023-09-19T12:16:38;19.20;99.90
14749;DHT22;7466;53.574;9.976;2023-09-19T12:19:18;19.50;99.90
14749;DHT22;7466;53.574;9.976;2023-09-19T12:21:54;19.90;99.90
14749;DHT22;7466;53.574;9.976;2023-09-19T12:24:25;19.70;99.90
14749;DHT22;7466;53.574;9.976;2023-09-19T12:26:59;19.50;99.90
14749;DHT22;7466;53.574;9.976;2023-09-19T12:29:30;19.40;99.90
14749;DHT22;7466;53.574;9.976;2023-09-19T12:31:59;19.60;99.90
14749;DHT22;7466;53.574;9.976;2023-09-19T12:34:30;19.70;99.90
14749;DHT22;7466;53.574;9.976;2023-09-19T12:37:07;19.90;99.90
14749;DHT22;7466;53.574;9.976;2023-09-19T12:39:44;19.90;99.90
14749;DHT22;7466;53.574;9.976;2023-09-19T12:42:15;20.00;99.90
14749;DHT22;7466;53.574;9.976;2023-09-19T12:44:44;20.00;99.90
14749;DHT22;7466;53.574;9.976;2023-09-19T12:47:14;19.80;99.90
14749;DHT22;7466;53.574;9.976;2023-09-19T12:50:08;19.50;99.90
14749;DHT22;7466;53.574;9.976;2023-09-19T12:52:41;19.70;99.90
14749;DHT22;7466;53.574;9.976;2023-09-19T12:55:08;19.60;99.90
14749;DHT22;7466;53.574;9.976;2023-09-19T12:57:36;19.40;99.90
14749;DHT22;7466;53.574;9.976;2023-09-19T13:00:05;19.30;99.90
14749;DHT22;7466;53.574;9.976;2023-09-19T13:02:34;19.40;99.90
14749;DHT22;7466;53.574;9.976;2023-09-19T13:05:01;19.70;99.90
14749;DHT22;7466;53.574;9.976;2023-09-19T13:07:45;19.40;99.90
14749;DHT22;7466;53.574;9.976;2023-09-19T13:10:12;19.30;99.90
14749;DHT22;7466;53.574;9.976;2023-09-19T13:12:42;19.80;99.90
14749;DHT22;7466;53.574;9.976;2023-09-19T13:15:15;20.40;99.90
14749;DHT22;7466;53.574;9.976;2023-09-19T13:17:48;21.10;99.90
14749;DHT22;7466;53.574;9.976;2023-09-19T13:20:23;20.70;99.90
14749;DHT22;7466;53.574;9.976;2023-09-19T13:22:53;20.50;99.90
14749;DHT22;7466;53.574;9.976;2023-09-19T13:25:24;20.60;99.90
14749;DHT22;7466;53.574;9.976;2023-09-19T13:27:53;20.30;99.90
14749;DHT22;7466;53.574;9.976;2023-09-19T13:30:22;20.70;99.90
14749;DHT22;7466;53.574;9.976;2023-09-19T13:32:52;20.50;99.90
14749;DHT22;7466;53.574;9.976;2023-09-19T13:35:20;20.30;99.90
14749;DHT22;7466;53.574;9.976;2023-09-19T13:37:54;20.60;99.90
14749;DHT22;7466;53.574;9.976;2023-09-19T13:40:21;21.30;99.90
14749;DHT22;7466;53.574;9.976;2023-09-19T13:42:47;21.50;97.30
14749;DHT22;7466;53.574;9.976;2023-09-19T13:45:18;21.50;95.80
14749;DHT22;7466;53.574;9.976;2023-09-19T13:47:50;20.70;99.90
14749;DHT22;7466;53.574;9.976;2023-09-19T13:50:18;20.90;99.90
14749;DHT22;7466;53.574;9.976;2023-09-19T13:52:49;20.70;99.90
14749;DHT22;7466;53.574;9.976;2023-09-19T13:55:17;20.60;99.90
14749;DHT22;7466;53.574;9.976;2023-09-19T13:57:46;20.60;99.90
14749;DHT22;7466;53.574;9.976;2023-09-19T14:00:15;20.30;99.90
14749;DHT22;7466;53.574;9.976;2023-09-19T14:02:43;20.40;99.90
14749;DHT22;7466;53.574;9.976;2023-09-19T14:05:11;20.40;99.90
14749;DHT22;7466;53.574;9.976;2023-09-19T14:07:43;20.20;99.90
14749;DHT22;7466;53.574;9.976;2023-09-19T14:10:13;20.20;99.90
14749;DHT22;7466;53.574;9.976;2023-09-19T14:12:40;19.90;99.90
14749;DHT22;7466;53.574;9.976;2023-09-19T14:15:08;19.90;99.90
14749;DHT22;7466;53.574;9.976;2023-09-19T14:17:35;19.90;99.90
14749;DHT22;7466;53.574;9.976;2023-09-19T14:20:03;19.90;99.90
14749;DHT22;7466;53.574;9.976;2023-09-19T14:22:32;19.90;99.90
14749;DHT22;7466;53.574;9.976;2023-09-19T14:25:00;19.80;99.90
14749;DHT22;7466;53.574;9.976;2023-09-19T14:27:26;19.80;99.90
14749;DHT22;7466;53.574;9.976;2023-09-19T14:29:53;19.80;99.90
14749;DHT22;7466;53.574;9.976;2023-09-19T14:32:23;19.80;99.90
14749;DHT22;7466;53.574;9.976;2023-09-19T14:34:50;19.90;99.90
14749;DHT22;7466;53.574;9.976;2023-09-19T14:37:18;19.90;99.90
14749;DHT22;7466;53.574;9.976;2023-09-19T14:39:46;20.00;99.90
14749;DHT22;7466;53.574;9.976;2023-09-19T14:42:18;20.20;99.90
14749;DHT22;7466;53.574;9.976;2023-09-19T14:44:45;20.00;99.90
14749;DHT22;7466;53.574;9.976;2023-09-19T14:47:13;19.90;99.90
14749;DHT22;7466;53.574;9.976;2023-09-19T14:49:41;19.70;99.90
14749;DHT22;7466;53.574;9.976;2023-09-19T14:52:09;19.60;99.90
14749;DHT22;7466;53.574;9.976;2023-09-19T14:54:37;19.50;99.90
14749;DHT22;7466;53.574;9.976;2023-09-19T14:57:06;19.50;99.90
14749;DHT22;7466;53.574;9.976;2023-09-19T14:59:35;19.40;99.90
14749;DHT22;7466;53.574;9.976;2023-09-19T15:02:03;19.40;99.90
14749;DHT22;7466;53.574;9.976;2023-09-19T15:04:30;19.30;99.90
14749;DHT22;7466;53.574;9.976;2023-09-19T15:06:57;19.30;99.90
14749;DHT22;7466;53.574;9.976;2023-09-19T15:09:24;19.20;99.90
14749;DHT22;7466;53.574;9.976;2023-09-19T15:11:52;19.20;99.90
14749;DHT22;7466;53.574;9.976;2023-09-19T15:14:19;19.10;99.90
14749;DHT22;7466;53.574;9.976;2023-09-19T15:16:47;19.10;99.90
14749;DHT22;7466;53.574;9.976;2023-09-19T15:19:14;19.00;99.90
14749;DHT22;7466;53.574;9.976;2023-09-19T15:21:43;19.10;99.90
14749;DHT22;7466;53.574;9.976;2023-09-19T15:24:10;19.00;99.90
14749;DHT22;7466;53.574;9.976;2023-09-19T15:26:37;19.00;99.90
14749;DHT22;7466;53.574;9.976;2023-09-19T15:29:06;19.10;99.90
14749;DHT22;7466;53.574;9.976;2023-09-19T15:31:38;19.10;99.90
14749;DHT22;7466;53.574;9.976;2023-09-19T15:34:06;19.10;99.90
14749;DHT22;7466;53.574;9.976;2023-09-19T15:36:39;19.10;99.90
14749;DHT22;7466;53.574;9.976;2023-09-19T15:39:07;19.10;99.90
14749;DHT22;7466;53.574;9.976;2023-09-19T15:41:37;19.10;99.90
14749;DHT22;7466;53.574;9.976;2023-09-19T15:44:07;19.10;99.90
14749;DHT22;7466;53.574;9.976;2023-09-19T15:46:37;19.10;99.90
14749;DHT22;7466;53.574;9.976;2023-09-19T15:49:03;19.00;99.90
14749;DHT22;7466;53.574;9.976;2023-09-19T15:51:31;19.00;99.90
14749;DHT22;7466;53.574;9.976;2023-09-19T15:53:58;19.00;99.90
14749;DHT22;7466;53.574;9.976;2023-09-19T15:56:26;19.00;99.90
14749;DHT22;7466;53.574;9.976;2023-09-19T15:58:54;19.00;99.90
14749;DHT22;7466;53.574;9.976;2023-09-19T16:01:21;18.90;99.90
14749;DHT22;7466;53.574;9.976;2023-09-19T16:03:50;18.90;99.90
14749;DHT22;7466;53.574;9.976;2023-09-19T16:06:19;19.00;99.90
14749;DHT22;7466;53.574;9.976;2023-09-19T16:08:48;19.00;99.90
14749;DHT22;7466;53.574;9.976;2023-09-19T16:11:16;18.90;99.90